Redwood City, CA (94065)

3:20 PM PST on February 06, 2016 (GMT -0800)
Redwood Shores | | Change Station
CLOSE
Current Station
Personal Weather Station
Location: Redwood City, CA
Elevation: 5 ft
Nearby Weather Stations

Elev 5 ft 37.53 °N, 122.25 °W | Updated 0 second ago

Mostly Cloudy
Mostly Cloudy
65.1 °F
Feels Like 65.1 °F
N
1.8
Wind Variable Wind from North
Gusts 2.5 mph

Today
High -- | Low -- °F
--% Chance of Precip.
Yesterday
High -- | Low -- °F
Precip. -- in
Pressure 30.34 in
Visibility 10.0 miles
Clouds Few 15000 ft
Mostly Cloudy 20000 ft
Dew Point 44 °F
Humidity 46%
Rainfall 0.00 in
Snow Depth Not available.
7:08 AM 5:38 PM
Waning Crescent, 4% visible
METAR KSQL 062253Z 07004KT 10SM FEW150 BKN200 16/10 A3034
Pressure 30.34 in
Visibility 10.0 miles
Clouds Few 15000 ft
Mostly Cloudy 20000 ft
Dew Point 44 °F
Humidity 46%
Rainfall 0.00 in
Snow Depth Not available.
7:08 AM 5:38 PM
Waning Crescent, 4% visible
METAR KSQL 062253Z 07004KT 10SM FEW150 BKN200 16/10 A3034

10-Day Weather Forecast

Almanac

Astronomy

Feb. 06, 2016 Rise Set
Actual Time
Civil Twilight
Nautical Twilight
Astronomical Twilight
Moon
Length of Visible Light
Length of Day
Tomorrow will be .
, % of the Moon is Illuminated

Today's Extremes

State Highs State Lows

Community

WunderPhotos

Upload Photos

1,891,092 photos uploaded!

WunderBlog® & News

Nearby

Air Quality

  Air Quality AQ Index Pollutant
Not available.

Snow Depth

Station Depth Elevation

Earthquake Activity

City Distance Mag. Time & Date
Minimum magnitude displayed is 2.5.

Coastal Water Temperatures

Place Temperature

Stations

Nearby Weather Stations

Station Location Temp. Windchill Dew Point Humidity Wind Precip. Elev Updated Type
                   

Watches & Warnings

There are currently no watches in effect.